Time;durP1;ratioP1;P1;durP2;ratioP2;P2;SDS_P1;SDS_P2;PMS_P1;PMS_P2;Temp;Humidity;BMP_temperature;BMP_pressure;BME280_temperature;BME280_humidity;BME280_pressure;Samples;Min_cycle;Max_cycle;Signal;HPM_P1;HPM_P2
2022/04/10 00:03:25;;;;;;;11.43;4.82;;;;;;;1.39;100.00;99986.97;12195581;19;20019;-78
2022/04/10 00:07:27;;;;;;;10.00;5.35;;;;;;;1.33;100.00;99983.09;12183751;19;20010;-78
2022/04/10 00:11:29;;;;;;;9.30;5.28;;;;;;;1.30;100.00;99991.63;12197986;19;20031;-79
2022/04/10 00:15:32;;;;;;;15.02;6.32;;;;;;;1.28;100.00;99981.97;12177215;19;20043;-79
2022/04/10 00:19:35;;;;;;;13.35;5.85;;;;;;;1.26;100.00;99990.31;12200760;19;20564;-79
2022/04/10 00:23:37;;;;;;;15.65;5.85;;;;;;;1.22;100.00;99990.88;12206164;19;20043;-79
2022/04/10 00:27:40;;;;;;;12.40;5.03;;;;;;;1.20;100.00;99980.22;12167285;19;20017;-80
2022/04/10 00:31:42;;;;;;;11.15;5.95;;;;;;;1.19;100.00;99992.09;12202707;19;20255;-78
2022/04/10 00:35:44;;;;;;;15.20;5.73;;;;;;;1.19;100.00;99989.38;12190542;19;20496;-78
2022/04/10 00:39:46;;;;;;;12.30;6.07;;;;;;;1.15;100.00;99985.34;12175420;19;21018;-78
2022/04/10 00:44:10;;;;;;;12.70;6.43;;;;;;;1.14;100.00;99992.63;12200694;19;20060;-79
2022/04/10 00:48:18;;;;;;;9.95;5.13;;;;;;;1.14;100.00;99997.22;12195758;19;20078;-79
2022/04/10 00:52:20;;;;;;;10.82;5.32;;;;;;;1.12;100.00;99999.28;12186402;19;20010;-79
2022/04/10 00:56:21;;;;;;;10.98;5.45;;;;;;;1.12;100.00;100004.69;12192517;19;20010;-78
2022/04/10 01:00:23;;;;;;;13.88;5.43;;;;;;;1.08;100.00;100003.41;12201755;19;20003;-78
2022/04/10 01:04:25;;;;;;;9.40;5.23;;;;;;;1.08;100.00;100006.13;12169674;19;20017;-78
2022/04/10 01:08:28;;;;;;;10.20;5.57;;;;;;;1.06;100.00;100002.72;12204768;19;20010;-78
2022/04/10 01:12:32;;;;;;;13.73;5.73;;;;;;;1.02;100.00;100015.81;12184652;19;20014;-78
2022/04/10 01:16:37;;;;;;;11.82;6.13;;;;;;;0.98;100.00;100014.50;12196897;19;20017;-78
2022/04/10 01:20:41;;;;;;;10.02;5.28;;;;;;;0.95;100.00;100014.00;12205507;19;20006;-79
2022/04/10 01:24:43;;;;;;;10.18;5.15;;;;;;;0.95;100.00;100016.72;12184247;19;19999;-79
2022/04/10 01:29:03;;;;;;;8.90;5.07;;;;;;;0.90;100.00;100014.56;12203562;19;20020;-79
2022/04/10 01:33:07;;;;;;;12.38;5.50;;;;;;;0.86;100.00;100014.09;12188148;19;20018;-79
2022/04/10 01:37:10;;;;;;;15.68;6.15;;;;;;;0.83;100.00;100011.75;12171140;19;20014;-78
2022/04/10 01:41:14;;;;;;;11.77;5.35;;;;;;;0.81;100.00;100012.97;12196054;19;20010;-79
2022/04/10 01:45:17;;;;;;;9.70;5.32;;;;;;;0.78;100.00;100022.28;12198274;19;20111;-79
2022/04/10 01:49:20;;;;;;;12.43;5.85;;;;;;;0.78;100.00;100026.88;12184895;19;20007;-79
2022/04/10 01:53:23;;;;;;;11.77;6.05;;;;;;;0.76;100.00;100018.06;12204289;19;20007;-78
2022/04/10 01:57:25;;;;;;;9.48;5.22;;;;;;;0.73;100.00;100011.13;12196889;19;20362;-78
2022/04/10 02:01:27;;;;;;;13.77;6.18;;;;;;;0.71;100.00;100013.19;12173142;19;20034;-78
2022/04/10 02:05:30;;;;;;;12.65;5.63;;;;;;;0.67;100.00;100011.88;12193217;19;20006;-79
2022/04/10 02:15:04;;;;;;;12.85;6.30;;;;;;;0.58;100.00;100018.38;12207798;19;20425;-78
2022/04/10 02:19:09;;;;;;;11.93;6.07;;;;;;;0.57;100.00;100027.53;12188284;19;20014;-78
2022/04/10 02:23:10;;;;;;;11.80;6.25;;;;;;;0.54;100.00;100023.31;12212244;19;20022;-79
2022/04/10 02:27:13;;;;;;;10.25;6.05;;;;;;;0.52;100.00;100024.53;12208329;19;20079;-77
2022/04/10 02:31:16;;;;;;;13.70;6.78;;;;;;;0.48;100.00;100023.16;12198302;19;20021;-77
2022/04/10 02:35:19;;;;;;;11.40;5.78;;;;;;;0.43;100.00;100024.56;12238597;19;20048;-77
2022/04/10 02:39:22;;;;;;;13.02;5.40;;;;;;;0.39;100.00;100028.66;12209342;19;23268;-78
2022/04/10 02:43:24;;;;;;;13.32;6.40;;;;;;;0.36;100.00;100033.59;12194637;19;20015;-78
2022/04/10 02:47:32;;;;;;;15.63;6.68;;;;;;;0.37;100.00;100029.88;12202140;19;20011;-78
2022/04/10 02:51:33;;;;;;;15.80;6.17;;;;;;;0.36;100.00;100039.03;12186832;19;20093;-79
2022/04/10 02:55:35;;;;;;;15.15;6.95;;;;;;;0.34;100.00;100031.06;12199374;19;20072;-79
2022/04/10 02:59:37;;;;;;;10.50;6.13;;;;;;;0.34;100.00;100031.06;12207487;19;20003;-79
2022/04/10 03:03:39;;;;;;;12.03;6.00;;;;;;;0.30;100.00;100032.44;12190262;19;20019;-80
2022/04/10 03:07:45;;;;;;;13.23;7.07;;;;;;;0.29;100.00;100029.91;12202811;19;20368;-77
2022/04/10 03:11:49;;;;;;;14.57;7.13;;;;;;;0.27;100.00;100027.38;12202604;19;20370;-79
2022/04/10 03:15:52;;;;;;;13.35;6.72;;;;;;;0.24;100.00;100035.88;12182118;19;20090;-78
2022/04/10 03:19:55;;;;;;;12.20;6.13;;;;;;;0.21;100.00;100044.34;12203135;19;20017;-79
2022/04/10 03:23:57;;;;;;;16.52;7.03;;;;;;;0.19;100.00;100041.81;12207335;19;20364;-77
2022/04/10 03:27:59;;;;;;;13.27;6.72;;;;;;;0.18;100.00;100042.00;12182896;19;20006;-79
2022/04/10 03:32:03;;;;;;;13.73;7.32;;;;;;;0.18;100.00;100039.28;12201937;19;20013;-78
2022/04/10 03:36:05;;;;;;;14.70;6.90;;;;;;;0.15;100.00;100050.44;12201845;19;20108;-79
2022/04/10 03:40:08;;;;;;;18.15;6.88;;;;;;;0.14;100.00;100054.19;12181698;19;20019;-77
2022/04/10 03:44:20;;;;;;;13.10;6.72;;;;;;;0.10;100.00;100061.00;12199799;19;20496;-79
2022/04/10 03:48:33;;;;;;;12.00;6.80;;;;;;;0.08;100.00;100065.75;12185702;19;20018;-78
2022/04/10 03:52:36;;;;;;;14.18;6.93;;;;;;;0.06;100.00;100074.06;12201775;19;20473;-79
2022/04/10 03:56:38;;;;;;;14.27;6.78;;;;;;;0.06;100.00;100084.03;12200871;19;20017;-78
2022/04/10 04:00:40;;;;;;;14.68;6.88;;;;;;;0.05;100.00;100090.47;12170651;19;20018;-78
2022/04/10 04:04:48;;;;;;;16.70;6.85;;;;;;;0.03;100.00;100097.94;12207832;19;20030;-79
2022/04/10 04:08:50;;;;;;;13.45;7.50;;;;;;;-0.01;100.00;100095.56;12196174;19;20557;-78
2022/04/10 04:12:52;;;;;;;14.23;6.82;;;;;;;-0.02;100.00;100104.72;12184413;19;20093;-78
2022/04/10 04:16:55;;;;;;;;;;;;;;;-0.03;100.00;100103.03;12203201;19;20042;-78
2022/04/10 04:20:57;;;;;;;15.50;7.22;;;;;;;-0.04;100.00;100105.91;12202975;19;19911;-80
2022/04/10 04:25:09;;;;;;;15.88;7.88;;;;;;;-0.06;100.00;100113.34;12171130;19;20002;-78
2022/04/10 04:29:13;;;;;;;15.35;7.18;;;;;;;-0.08;100.00;100116.25;12198699;19;20516;-78
2022/04/10 04:33:16;;;;;;;13.35;7.15;;;;;;;-0.10;100.00;100123.69;12200191;19;20020;-77
2022/04/10 04:37:19;;;;;;;17.58;8.23;;;;;;;-0.13;100.00;100124.06;12178995;19;20014;-76
2022/04/10 04:41:23;;;;;;;15.20;7.70;;;;;;;-0.13;100.00;100134.88;12202610;19;20007;-78
2022/04/10 04:45:26;;;;;;;15.90;7.95;;;;;;;-0.13;100.00;100129.47;12195445;19;20077;-78
2022/04/10 04:49:49;;;;;;;17.65;7.40;;;;;;;-0.13;100.00;100126.75;12206253;19;20020;-78
2022/04/10 04:53:52;;;;;;;16.35;7.57;;;;;;;-0.13;100.00;100129.47;12197587;19;20019;-78
2022/04/10 04:57:55;;;;;;;18.85;7.75;;;;;;;-0.11;100.00;100138.28;12177996;19;20014;-78
2022/04/10 05:01:58;;;;;;;17.00;7.57;;;;;;;-0.09;100.00;100141.66;12197732;19;20018;-76
2022/04/10 05:06:01;;;;;;;20.25;8.05;;;;;;;-0.02;100.00;100150.78;12201618;19;20015;-79
2022/04/10 05:10:04;;;;;;;13.15;6.97;;;;;;;0.09;100.00;100165.84;12176838;19;20010;-77
2022/04/10 05:14:10;;;;;;;15.68;7.57;;;;;;;0.21;100.00;100164.44;12192195;19;20072;-78
2022/04/10 05:18:13;;;;;;;15.48;7.03;;;;;;;0.36;100.00;100171.84;12194742;19;20487;-78
2022/04/10 05:22:19;;;;;;;16.83;8.02;;;;;;;0.58;100.00;100186.50;12172508;19;20043;-78
2022/04/10 05:26:31;;;;;;;15.77;7.45;;;;;;;0.80;100.00;100185.69;12198269;19;20023;-77
2022/04/10 05:30:36;;;;;;;16.90;7.30;;;;;;;1.06;100.00;100193.53;12170286;19;20014;-79
2022/04/10 05:34:41;;;;;;;14.65;7.78;;;;;;;1.34;100.00;100204.75;12202305;19;20006;-79
2022/04/10 05:38:45;;;;;;;17.38;8.18;;;;;;;1.58;100.00;100209.16;12192606;19;20078;-77
2022/04/10 05:42:49;;;;;;;13.50;7.03;;;;;;;1.78;100.00;100208.63;12176815;19;20045;-80
2022/04/10 05:46:54;;;;;;;13.55;6.95;;;;;;;1.94;100.00;100221.25;12198470;19;20025;-78
2022/04/10 05:50:57;;;;;;;11.45;6.30;;;;;;;2.10;100.00;100223.81;12198404;19;20010;-79
2022/04/10 05:55:02;;;;;;;12.70;7.22;;;;;;;2.24;100.00;100233.88;12175117;19;20014;-78
2022/04/10 05:59:05;;;;;;;11.40;6.90;;;;;;;2.36;100.00;100239.69;12191065;19;20007;-78
2022/04/10 06:03:07;;;;;;;12.00;6.07;;;;;;;2.50;100.00;100238.03;12204269;19;20627;-79
2022/04/10 06:07:12;;;;;;;14.75;6.78;;;;;;;2.58;100.00;100235.19;12176571;19;20014;-78
2022/04/10 06:11:16;;;;;;;10.80;6.22;;;;;;;2.57;100.00;100244.38;12199864;19;20014;-78
2022/04/10 06:15:21;;;;;;;14.52;6.30;;;;;;;2.64;100.00;100249.91;12201827;19;20011;-78
2022/04/10 06:19:28;;;;;;;9.55;6.03;;;;;;;2.76;100.00;100250.28;12184726;19;20082;-78
2022/04/10 06:23:31;;;;;;;12.48;6.13;;;;;;;2.82;100.00;100252.25;12202536;19;20018;-78
2022/04/10 06:27:47;;;;;;;11.68;5.95;;;;;;;2.83;100.00;100249.38;12173770;19;20004;-78
2022/04/10 06:31:50;;;;;;;14.37;6.33;;;;;;;2.87;100.00;100255.28;12188353;19;20022;-78
2022/04/10 06:35:54;;;;;;;10.10;4.80;;;;;;;2.89;100.00;100261.38;12208086;19;20011;-78
2022/04/10 06:39:56;;;;;;;10.63;5.63;;;;;;;3.03;100.00;100263.22;12179298;19;20011;-79
2022/04/10 06:43:59;;;;;;;12.10;6.05;;;;;;;3.23;100.00;100257.19;12200871;19;20082;-80
2022/04/10 06:48:18;;;;;;;12.52;6.20;;;;;;;3.23;98.88;100266.19;12210814;19;20015;-80
2022/04/10 06:52:22;;;;;;;11.32;5.63;;;;;;;3.22;99.58;100260.97;12179540;19;20074;-81
2022/04/10 06:56:27;;;;;;;10.75;5.63;;;;;;;3.28;100.00;100268.38;12207303;19;20386;-80
2022/04/10 07:00:30;;;;;;;11.98;5.63;;;;;;;3.33;99.87;100272.22;12188043;19;20031;-80
2022/04/10 07:04:33;;;;;;;14.43;6.00;;;;;;;3.41;99.62;100268.50;12216346;19;20014;-79
2022/04/10 07:08:38;;;;;;;8.65;5.22;;;;;;;3.53;98.97;100271.56;12207091;19;20052;-80
2022/04/10 07:12:41;;;;;;;12.13;5.70;;;;;;;3.61;98.89;100283.19;12192608;19;20074;-80
2022/04/10 07:16:43;;;;;;;9.52;5.95;;;;;;;3.71;98.67;100287.50;12207100;19;20006;-80
2022/04/10 07:20:46;;;;;;;10.73;6.32;;;;;;;3.83;97.94;100280.47;12207089;19;20007;-81
2022/04/10 07:24:48;;;;;;;10.68;6.03;;;;;;;3.99;96.15;100299.31;12189404;19;20019;-78
2022/04/10 07:28:52;;;;;;;12.55;5.85;;;;;;;4.01;93.69;100301.84;12212328;19;20031;-80
2022/04/10 07:32:57;;;;;;;10.23;6.13;;;;;;;4.16;94.46;100315.41;12212292;19;20014;-80
2022/04/10 07:37:02;;;;;;;14.60;6.28;;;;;;;4.06;92.52;100311.13;12192806;19;20019;-81
2022/04/10 07:41:14;;;;;;;11.43;6.60;;;;;;;4.03;92.87;100316.97;12208875;19;20015;-81
2022/04/10 07:50:10;;;;;;;14.95;6.47;;;;;;;4.00;93.11;100332.88;12111305;19;2004660;-81
2022/04/10 07:54:13;;;;;;;13.93;6.27;;;;;;;4.10;94.10;100331.53;12207866;19;20533;-80
2022/04/10 07:58:14;;;;;;;14.30;7.03;;;;;;;4.22;92.72;100330.97;12189388;19;20007;-81
2022/04/10 08:02:19;;;;;;;11.27;6.28;;;;;;;4.32;92.87;100326.91;12203825;19;20034;-79
2022/04/10 08:06:25;;;;;;;11.50;6.55;;;;;;;4.68;93.07;100334.13;12210679;19;20002;-79
2022/04/10 08:10:32;;;;;;;12.95;6.22;;;;;;;4.98;91.29;100328.44;12206803;19;20011;-80
2022/04/10 08:14:34;;;;;;;11.10;6.05;;;;;;;5.35;89.84;100324.41;12215958;19;20003;-81
2022/04/10 08:18:36;;;;;;;11.17;6.00;;;;;;;5.56;89.19;100319.88;12182702;19;20019;-80
2022/04/10 08:22:40;;;;;;;11.32;5.07;;;;;;;5.61;86.76;100334.63;12194580;19;20011;-80
2022/04/10 08:26:42;;;;;;;10.23;5.75;;;;;;;5.49;85.68;100339.00;12216342;19;19998;-81
2022/04/10 08:30:44;;;;;;;14.10;6.25;;;;;;;5.51;86.82;100338.81;12186934;19;20007;-79
2022/04/10 08:34:46;;;;;;;13.75;6.15;;;;;;;5.59;86.73;100341.34;12208820;19;20007;-79
2022/04/10 08:38:49;;;;;;;10.50;5.72;;;;;;;5.87;84.71;100343.97;12200395;19;20006;-80
2022/04/10 08:42:53;;;;;;;12.53;7.47;;;;;;;6.41;83.71;100344.94;12179337;19;20028;-81
2022/04/10 08:46:56;;;;;;;11.93;6.22;;;;;;;6.68;82.10;100338.41;12197307;19;20007;-82
2022/04/10 08:50:58;;;;;;;11.48;5.88;;;;;;;6.57;81.22;100344.50;12211240;19;20018;-81
2022/04/10 08:55:00;;;;;;;9.50;5.88;;;;;;;6.77;80.67;100350.81;12179353;19;20460;-81
2022/04/10 08:59:01;;;;;;;12.27;5.57;;;;;;;7.01;80.62;100364.91;12205418;19;20010;-81
2022/04/10 09:03:04;;;;;;;10.15;4.75;;;;;;;6.94;78.98;100353.97;12216761;19;20007;-81
2022/04/10 09:07:10;;;;;;;9.27;4.25;;;;;;;6.76;78.84;100362.84;12187691;19;20384;-80
2022/04/10 09:11:12;;;;;;;9.90;5.25;;;;;;;6.90;79.32;100355.47;12209995;19;20015;-80
2022/04/10 09:15:15;;;;;;;8.52;4.20;;;;;;;7.02;78.02;100353.75;12209483;19;20018;-81
2022/04/10 09:19:18;;;;;;;;;;;;;;;6.97;78.03;100360.94;12202858;19;20119;-80
2022/04/10 09:23:22;;;;;;;8.95;3.60;;;;;;;6.99;78.09;100362.41;12213931;19;19915;-81
2022/04/10 09:27:32;;;;;;;6.75;4.20;;;;;;;7.21;78.28;100376.69;12209968;19;20013;-81
2022/04/10 09:31:35;;;;;;;7.70;4.70;;;;;;;7.35;78.03;100387.63;12173508;19;20027;-80
2022/04/10 09:35:43;;;;;;;12.90;6.15;;;;;;;7.07;78.95;100375.88;12201447;19;20066;-81
2022/04/10 09:39:44;;;;;;;10.35;6.13;;;;;;;7.01;78.71;100384.09;12180236;19;20003;-80
2022/04/10 09:43:46;;;;;;;9.88;4.68;;;;;;;7.02;78.67;100377.56;12197997;19;20010;-80
2022/04/10 09:47:48;;;;;;;13.55;5.47;;;;;;;7.02;78.63;100369.34;12202347;19;20010;-81
2022/04/10 09:52:09;;;;;;;8.82;3.65;;;;;;;7.15;76.55;100369.31;12180281;19;20006;-81
2022/04/10 09:56:10;;;;;;;10.52;5.20;;;;;;;7.17;76.54;100375.44;12210182;19;20018;-81
2022/04/10 10:00:13;;;;;;;12.77;4.60;;;;;;;7.42;76.64;100370.09;12235857;19;20007;-81
2022/04/10 10:04:16;;;;;;;10.27;4.10;;;;;;;7.33;74.72;100373.31;12197447;19;20010;-80
2022/04/10 10:08:18;;;;;;;9.95;4.57;;;;;;;7.53;75.10;100363.13;12210000;19;20018;-81
2022/04/10 10:12:22;;;;;;;5.63;3.50;;;;;;;7.49;73.74;100356.38;12210510;19;20479;-81
2022/04/10 10:16:24;;;;;;;9.15;4.22;;;;;;;7.22;74.39;100364.66;12182697;19;20007;-82
2022/04/10 10:20:29;;;;;;;10.82;4.40;;;;;;;7.21;75.22;100360.25;12206551;19;20015;-81
2022/04/10 10:24:53;;;;;;;12.65;4.88;;;;;;;7.29;74.01;100356.44;12185420;19;19998;-81
2022/04/10 10:29:17;;;;;;;9.65;4.47;;;;;;;7.28;74.72;100352.00;12198900;19;20369;-81
2022/04/10 10:33:27;;;;;;;11.15;4.45;;;;;;;7.78;73.36;100346.75;12216903;19;20022;-81
2022/04/10 10:37:47;;;;;;;10.98;4.32;;;;;;;8.33;72.54;100346.19;12188758;19;20018;-79
2022/04/10 10:41:52;;;;;;;10.00;4.97;;;;;;;8.72;70.76;100341.53;12213556;19;20014;-79
2022/04/10 10:45:57;;;;;;;9.40;5.32;;;;;;;8.62;71.25;100358.50;12176608;19;20508;-79
2022/04/10 10:50:26;;;;;;;7.22;4.65;;;;;;;8.54;71.29;100351.38;12235684;19;20006;-78
2022/04/10 10:54:34;;;;;;;8.40;4.90;;;;;;;9.08;71.38;100349.84;12225167;19;20006;-78
2022/04/10 10:58:38;;;;;;;9.60;5.20;;;;;;;9.63;67.73;100346.25;12256969;19;20011;-78
2022/04/10 11:02:46;;;;;;;6.95;4.90;;;;;;;10.61;64.63;100335.97;12246682;19;20051;-78
2022/04/10 11:06:54;;;;;;;8.20;5.13;;;;;;;11.27;63.00;100340.31;12234612;19;20039;-77
2022/04/10 11:11:05;;;;;;;10.90;5.35;;;;;;;11.79;61.12;100332.03;12253283;19;20006;-78
2022/04/10 11:15:19;;;;;;;11.30;5.03;;;;;;;12.23;59.76;100320.50;12244145;19;20018;-79
2022/04/10 11:19:23;;;;;;;9.65;5.63;;;;;;;12.08;56.69;100335.69;12236901;19;20089;-78
2022/04/10 11:23:29;;;;;;;9.82;5.57;;;;;;;11.44;58.67;100334.06;12264357;19;20014;-79
2022/04/10 11:27:47;;;;;;;7.97;4.63;;;;;;;11.28;60.20;100333.72;12239359;19;20010;-79
2022/04/10 11:31:54;;;;;;;9.35;5.00;;;;;;;11.12;60.19;100321.53;12222007;19;19999;-80
2022/04/10 11:35:56;;;;;;;8.77;5.40;;;;;;;10.81;60.22;100311.69;12228728;19;20014;-80
2022/04/10 11:39:59;;;;;;;8.18;4.90;;;;;;;11.09;61.25;100310.09;12212871;19;20014;-80
2022/04/10 11:44:02;;;;;;;10.40;5.40;;;;;;;11.29;59.09;100307.81;12226710;19;20512;-79
2022/04/10 11:48:05;;;;;;;9.60;5.60;;;;;;;11.78;58.99;100304.69;12226768;19;20018;-80
2022/04/10 11:52:07;;;;;;;9.38;4.80;;;;;;;12.63;57.83;100295.47;12209946;19;20086;-80
2022/04/10 11:56:12;;;;;;;9.23;5.23;;;;;;;13.14;55.42;100278.81;12212992;19;20038;-80
2022/04/10 12:00:14;;;;;;;10.27;4.90;;;;;;;13.69;53.58;100272.34;12228586;19;20019;-79
2022/04/10 12:04:18;;;;;;;7.60;4.78;;;;;;;13.87;50.99;100279.47;12189661;19;20074;-81
2022/04/10 12:08:21;;;;;;;10.63;5.28;;;;;;;13.33;52.09;100291.28;12220141;19;20039;-80
2022/04/10 12:12:40;;;;;;;9.52;5.93;;;;;;;13.13;52.95;100277.97;12224092;19;20081;-80
2022/04/10 12:16:43;;;;;;;9.63;5.75;;;;;;;12.48;53.84;100279.47;12192695;19;20091;-79
2022/04/10 12:20:45;;;;;;;11.83;6.87;;;;;;;12.03;55.53;100283.09;12227564;19;20489;-80
2022/04/10 12:24:47;;;;;;;10.82;5.85;;;;;;;11.76;56.78;100299.41;12220781;19;20015;-80
2022/04/10 12:28:49;;;;;;;6.83;4.23;;;;;;;12.40;52.34;100293.69;12246218;19;20006;-81
2022/04/10 12:32:51;;;;;;;10.68;4.47;;;;;;;12.97;51.81;100281.63;12232790;19;20010;-82
2022/04/10 12:37:09;;;;;;;9.88;5.03;;;;;;;13.94;50.73;100273.72;12172122;19;20022;-85
2022/04/10 12:41:11;;;;;;;11.23;6.32;;;;;;;14.57;49.74;100270.22;12212306;19;20002;-83
2022/04/10 12:45:12;;;;;;;8.00;6.15;;;;;;;14.23;48.58;100266.00;12206365;19;20007;-82
2022/04/10 12:49:17;;;;;;;9.15;6.40;;;;;;;15.53;49.09;100256.31;12194429;19;20013;-82
2022/04/10 12:53:19;;;;;;;10.40;6.45;;;;;;;16.04;47.54;100245.41;12207427;19;20010;-83
2022/04/10 12:57:26;;;;;;;8.77;5.65;;;;;;;16.60;45.33;100243.47;12203707;19;20015;-82
2022/04/10 13:01:32;;;;;;;13.13;6.03;;;;;;;16.88;43.69;100248.75;12184904;19;20006;-82
2022/04/10 13:05:34;;;;;;;8.05;6.03;;;;;;;17.39;42.79;100243.03;12208916;19;20018;-81
2022/04/10 13:09:37;;;;;;;9.80;5.77;;;;;;;17.51;41.50;100247.16;12188743;19;20630;-82
2022/04/10 13:14:00;;;;;;;10.85;5.65;;;;;;;17.42;40.55;100234.09;12213924;19;20026;-82
2022/04/10 13:18:05;;;;;;;11.07;6.82;;;;;;;16.77;41.94;100232.06;12207070;19;20006;-81
2022/04/10 13:22:06;;;;;;;10.55;6.05;;;;;;;15.03;44.57;100250.25;12184522;19;20479;-82
2022/04/10 13:26:29;;;;;;;9.48;6.40;;;;;;;14.40;46.01;100252.00;12212974;19;20019;-82
2022/04/10 13:30:31;;;;;;;9.27;5.93;;;;;;;13.23;47.06;100260.66;12181353;19;20006;-82
2022/04/10 13:34:35;;;;;;;6.25;3.90;;;;;;;12.65;47.16;100257.34;12206235;19;20341;-80
2022/04/10 13:38:37;;;;;;;5.68;3.42;;;;;;;11.88;47.75;100252.44;12201715;19;20523;-81
2022/04/10 13:42:39;;;;;;;4.88;2.72;;;;;;;11.12;47.80;100251.69;12174658;19;20006;-81
2022/04/10 13:46:40;;;;;;;6.13;2.67;;;;;;;10.91;49.04;100248.50;12195500;19;20031;-81
2022/04/10 13:50:42;;;;;;;5.38;2.05;;;;;;;10.89;48.16;100255.34;12212507;19;20007;-82
2022/04/10 13:54:44;;;;;;;5.55;1.95;;;;;;;10.89;49.40;100249.84;12173597;19;20363;-81
2022/04/10 13:58:46;;;;;;;4.35;2.20;;;;;;;11.56;48.34;100241.84;12194155;19;20030;-83
2022/04/10 14:02:47;;;;;;;4.60;2.13;;;;;;;11.75;48.13;100228.72;12204655;19;20010;-83
2022/04/10 14:06:49;;;;;;;5.17;2.07;;;;;;;11.88;47.38;100230.34;12190501;19;20036;-81
2022/04/10 14:10:51;;;;;;;4.40;1.90;;;;;;;12.06;47.24;100226.53;12207067;19;20712;-81
2022/04/10 14:14:54;;;;;;;5.87;2.33;;;;;;;12.02;48.79;100217.91;12214779;19;20079;-80
2022/04/10 14:18:56;;;;;;;5.22;2.72;;;;;;;12.25;49.70;100219.66;12186786;19;20094;-80
2022/04/10 14:23:00;;;;;;;5.40;2.92;;;;;;;11.78;51.93;100219.94;12223728;19;20377;-81
2022/04/10 14:27:02;;;;;;;5.50;3.00;;;;;;;11.23;53.57;100217.75;12219107;19;20510;-80
2022/04/10 14:31:05;;;;;;;6.93;3.07;;;;;;;11.35;54.30;100214.94;12208086;19;20014;-81
2022/04/10 14:35:07;;;;;;;6.05;3.70;;;;;;;11.86;53.38;100215.94;12236749;19;20089;-83
2022/04/10 14:39:09;;;;;;;5.07;3.22;;;;;;;12.54;52.83;100212.13;12202559;19;20031;-81
2022/04/10 14:43:13;;;;;;;7.35;4.25;;;;;;;13.18;50.19;100208.03;12205610;19;20003;-82
2022/04/10 14:47:15;;;;;;;5.10;3.40;;;;;;;12.86;50.81;100207.88;12247341;19;20030;-83
2022/04/10 14:51:27;;;;;;;4.70;3.03;;;;;;;12.86;50.17;100202.34;12239329;19;20079;-83
2022/04/10 14:55:29;;;;;;;6.10;2.97;;;;;;;12.71;50.74;100201.03;12211419;19;20011;-83
2022/04/10 14:59:31;;;;;;;5.23;3.20;;;;;;;13.30;49.99;100197.72;12207522;19;20011;-83
2022/04/10 15:03:34;;;;;;;5.93;3.50;;;;;;;13.20;48.51;100198.38;12198470;19;20022;-82
2022/04/10 15:07:36;;;;;;;4.90;3.50;;;;;;;13.29;49.05;100196.00;12220180;19;20014;-83
2022/04/10 15:11:38;;;;;;;8.18;3.42;;;;;;;13.36;49.01;100195.84;12205881;19;20954;-84
2022/04/10 15:15:40;;;;;;;6.23;3.43;;;;;;;12.73;50.27;100192.47;12187836;19;20014;-81
2022/04/10 15:19:43;;;;;;;7.03;3.50;;;;;;;12.37;51.43;100194.72;12208415;19;20007;-83
2022/04/10 15:24:18;;;;;;;8.43;3.15;;;;;;;12.09;51.97;100185.44;12214993;19;20041;-82
2022/04/10 15:28:20;;;;;;;7.43;3.38;;;;;;;11.67;53.41;100187.69;12216044;19;20039;-82
2022/04/10 15:32:23;;;;;;;10.85;3.88;;;;;;;11.36;54.29;100187.13;12215334;19;20413;-82
2022/04/10 15:36:29;;;;;;;8.15;3.58;;;;;;;11.24;54.87;100191.81;12187011;19;20011;-82
2022/04/10 15:40:37;;;;;;;6.15;3.72;;;;;;;11.67;54.16;100186.88;12214681;19;20006;-81
2022/04/10 15:44:56;;;;;;;7.97;4.10;;;;;;;12.29;53.09;100179.41;12206749;19;20353;-82
2022/04/10 15:49:23;;;;;;;7.43;3.97;;;;;;;13.05;51.69;100184.34;12207241;19;20524;-82
2022/04/10 15:58:51;;;;;;;8.38;3.38;;;;;;;12.16;51.75;100190.78;12201742;19;20055;-82
2022/04/10 16:22:43;;;;;;;7.88;3.38;;;;;;;13.48;49.30;100192.94;12210719;19;20021;-81
2022/04/10 16:31:35;;;;;;;5.80;2.97;;;;;;;16.28;44.19;100190.09;12200035;19;20027;-83
2022/04/10 16:51:06;;;;;;;6.50;3.35;;;;;;;15.72;42.52;100179.75;12206075;19;20099;-81
2022/04/10 16:55:09;;;;;;;6.68;3.60;;;;;;;15.10;43.86;100180.63;12186189;19;20014;-82
2022/04/10 16:59:11;;;;;;;6.38;2.72;;;;;;;14.32;44.81;100182.06;12203420;19;20472;-82
2022/04/10 17:03:13;;;;;;;5.15;3.10;;;;;;;13.85;46.03;100176.41;12200947;19;19999;-82
2022/04/10 17:07:15;;;;;;;6.03;3.20;;;;;;;13.30;45.42;100178.34;12190132;19;20378;-81
2022/04/10 17:11:20;;;;;;;6.75;3.65;;;;;;;12.81;46.04;100177.38;12208754;19;20006;-82
2022/04/10 17:15:24;;;;;;;5.25;2.83;;;;;;;12.21;46.66;100171.53;12202278;19;20476;-82
2022/04/10 17:19:25;;;;;;;6.75;2.75;;;;;;;12.01;47.23;100174.78;12186535;19;20007;-80
2022/04/10 17:23:27;;;;;;;6.63;2.97;;;;;;;11.65;48.19;100189.88;12211332;19;20019;-81
2022/04/10 17:27:35;;;;;;;5.38;2.33;;;;;;;11.46;48.69;100194.75;12181315;19;20007;-82
2022/04/10 17:31:37;;;;;;;6.45;2.85;;;;;;;11.17;49.79;100196.66;12202384;19;20006;-81
2022/04/10 17:35:39;;;;;;;6.40;3.40;;;;;;;10.68;51.66;100209.94;12201721;19;20022;-80
2022/04/10 17:40:28;;;;;;;6.68;2.78;;;;;;;10.34;52.87;100201.44;12179577;19;20042;-81
2022/04/10 17:44:34;;;;;;;8.30;3.42;;;;;;;10.03;53.03;100205.31;12205462;19;20011;-84
2022/04/10 17:49:11;;;;;;;3.67;2.17;;;;;;;9.79;54.14;100202.50;12207284;19;20014;-81
2022/04/10 17:55:15;;;;;;;;;;;;;;;;;;;;;
2022/04/10 17:59:31;;;;;;;5.80;3.25;;;;;;;9.36;55.59;100197.22;12108420;19;2004219;-80
2022/04/10 18:03:40;;;;;;;9.20;3.50;;;;;;;9.20;55.72;100200.63;12172670;19;20011;-80
2022/04/10 18:07:55;;;;;;;8.00;3.83;;;;;;;9.09;56.40;100203.03;12202006;19;20027;-80
2022/04/10 18:12:05;;;;;;;9.35;3.40;;;;;;;9.03;57.18;100201.22;12201937;19;20039;-80
2022/04/10 18:16:09;;;;;;;8.80;3.33;;;;;;;8.93;57.82;100209.19;12171913;19;20014;-81
2022/04/10 18:20:11;;;;;;;5.85;3.38;;;;;;;8.84;58.25;100205.06;12193521;19;20003;-81
2022/04/10 18:24:13;;;;;;;5.82;3.53;;;;;;;8.78;58.84;100205.97;12203726;19;20066;-81
2022/04/10 18:28:18;;;;;;;9.27;3.53;;;;;;;8.71;59.06;100210.69;12176877;19;20496;-81
2022/04/10 18:32:20;;;;;;;7.35;4.53;;;;;;;8.63;60.17;100215.44;12207947;19;20030;-81
2022/04/10 18:36:24;;;;;;;11.48;4.95;;;;;;;8.55;60.41;100221.22;12212978;19;20090;-82
2022/04/10 18:40:27;;;;;;;11.23;4.70;;;;;;;8.48;60.76;100217.69;12179392;19;20486;-80
2022/04/10 18:44:30;;;;;;;8.65;4.15;;;;;;;8.35;61.44;100218.59;12207216;19;20017;-80
2022/04/10 18:52:54;;;;;;;7.03;3.30;;;;;;;8.06;62.74;100216.53;12216291;19;20002;-81
2022/04/10 18:56:56;;;;;;;8.88;3.72;;;;;;;7.92;63.26;100224.06;12242588;19;20011;-81
2022/04/10 19:00:58;;;;;;;11.00;3.65;;;;;;;7.79;63.68;100233.19;12196122;19;20011;-81
2022/04/10 19:05:01;;;;;;;8.65;3.95;;;;;;;7.66;64.43;100230.56;12211575;19;20034;-82
2022/04/10 19:09:02;;;;;;;8.88;4.03;;;;;;;7.49;64.90;100231.06;12213895;19;20022;-81
2022/04/10 19:13:05;;;;;;;5.65;3.28;;;;;;;7.28;65.84;100232.22;12187006;19;20535;-82
2022/04/10 19:17:07;;;;;;;8.27;3.75;;;;;;;7.08;66.69;100235.06;12210545;19;20006;-81
2022/04/10 19:21:09;;;;;;;5.88;2.88;;;;;;;6.89;67.60;100232.38;12210219;19;20007;-81
2022/04/10 19:25:11;;;;;;;7.55;3.15;;;;;;;6.69;68.89;100235.16;12192384;19;20002;-81
2022/04/10 19:29:14;;;;;;;7.50;3.47;;;;;;;6.51;69.17;100233.09;12215495;19;20422;-82
2022/04/10 19:33:15;;;;;;;8.20;3.30;;;;;;;6.35;69.70;100237.97;12215580;19;20022;-80
2022/04/10 19:37:30;;;;;;;6.85;3.60;;;;;;;6.21;70.36;100238.19;12183899;19;20007;-81
2022/04/10 19:41:34;;;;;;;8.15;3.40;;;;;;;6.06;70.52;100241.13;12208371;19;20022;-82
2022/04/10 19:45:48;;;;;;;7.38;2.78;;;;;;;5.97;71.15;100235.03;12184192;19;20494;-81
2022/04/10 19:50:08;;;;;;;7.95;3.08;;;;;;;5.85;71.55;100251.16;12217288;19;20055;-82